Time;durP1;ratioP1;P1;durP2;ratioP2;P2;SDS_P1;SDS_P2;PMS_P1;PMS_P2;Temp;Humidity;BMP_temperature;BMP_pressure;BME280_temperature;BME280_humidity;BME280_pressure;Samples;Min_cycle;Max_cycle;Signal;HPM_P1;HPM_P2
2023/04/09 00:01:34;;;;;;;;;;;;;;;29.76;48.55;101204.56;5077406;27;69635;-44
2023/04/09 00:04:04;;;;;;;;;;;;;;;29.78;48.48;101205.19;5079677;28;65845;-43
2023/04/09 00:06:40;;;;;;;;;;;;;;;29.83;48.49;101209.97;5079026;27;71072;-45
2023/04/09 00:09:13;;;;;;;;;;;;;;;29.88;48.86;101217.47;5078881;27;67313;-43
2023/04/09 00:11:43;;;;;;;;;;;;;;;29.89;49.33;101222.66;5079958;27;70059;-43
2023/04/09 00:14:13;;;;;;;;;;;;;;;29.94;49.53;101216.66;5081048;27;66081;-44
2023/04/09 00:16:43;;;;;;;;;;;;;;;29.96;49.76;101228.09;5079771;27;70708;-43
2023/04/09 00:19:14;;;;;;;;;;;;;;;30.02;49.42;101224.56;5063132;28;65318;-44
2023/04/09 00:21:44;;;;;;;;;;;;;;;30.03;49.82;101228.94;5080360;27;71305;-41
2023/04/09 00:24:14;;;;;;;;;;;;;;;30.08;50.04;101223.75;5077606;27;67771;-44
2023/04/09 00:26:45;;;;;;;;;;;;;;;30.10;50.38;101226.25;5079652;27;70410;-42
2023/04/09 00:29:15;;;;;;;;;;;;;;;30.15;51.69;101224.59;5078831;27;66859;-44
2023/04/09 00:31:46;;;;;;;;;;;;;;;30.20;54.90;101235.63;5093793;27;68487;-42
2023/04/09 00:34:16;;;;;;;;;;;;;;;30.24;57.22;101231.47;5059664;28;67008;-43
2023/04/09 00:36:47;;;;;;;;;;;;;;;30.30;58.25;101246.06;5080111;27;70045;-43
2023/04/09 00:39:17;;;;;;;;;;;;;;;30.34;59.39;101246.47;5064392;28;66614;-53
2023/04/09 00:41:47;;;;;;;;;;;;;;;30.38;59.81;101245.03;5081950;28;70191;-43
2023/04/09 00:44:17;;;;;;;;;;;;;;;30.44;60.78;101249.59;5078821;27;66856;-44
2023/04/09 00:46:48;;;;;;;;;;;;;;;30.47;60.62;101262.72;5075701;27;70888;-42
2023/04/09 00:49:18;;;;;;;;;;;;;;;30.54;61.61;101255.44;5061003;28;65649;-42
2023/04/09 00:51:48;;;;;;;;;;;;;;;30.56;62.54;101258.75;5072699;27;70060;-43
2023/04/09 00:54:19;;;;;;;;;;;;;;;30.55;59.90;101259.78;5077558;27;65588;-42
2023/04/09 00:56:49;;;;;;;;;;;;;;;30.57;58.52;101271.25;5062758;28;70318;-41
2023/04/09 00:59:19;;;;;;;;;;;;;;;30.59;57.14;101261.06;5078326;27;66166;-41
2023/04/09 01:01:49;;;;;;;;;;;;;;;30.63;57.06;101259.59;5079333;28;69037;-41
2023/04/09 01:04:20;;;;;;;;;;;;;;;30.65;57.34;101257.50;5077975;27;65870;-42
2023/04/09 01:06:55;;;;;;;;;;;;;;;30.70;57.49;101255.00;5073372;27;70118;-42
2023/04/09 01:09:36;;;;;;;;;;;;;;;30.73;57.30;101262.72;5063775;27;66244;-41
2023/04/09 01:12:22;;;;;;;;;;;;;;;30.77;57.39;101265.00;5065206;28;70206;-46
2023/04/09 01:14:56;;;;;;;;;;;;;;;30.80;58.30;101264.59;5063323;28;65724;-42
2023/04/09 01:17:32;;;;;;;;;;;;;;;30.87;61.44;101260.00;5037844;27;68640;-43
2023/04/09 01:20:09;;;;;;;;;;;;;;;30.90;62.06;101271.25;5059123;28;65584;-42
2023/04/09 01:22:46;;;;;;;;;;;;;;;30.94;61.23;101268.94;5061494;28;70660;-41
2023/04/09 01:25:16;;;;;;;;;;;;;;;30.97;62.32;101267.69;5043657;28;65337;-41
2023/04/09 01:27:55;;;;;;;;;;;;;;;30.97;62.42;101254.97;5073129;27;70625;-42
2023/04/09 01:30:25;;;;;;;;;;;;;;;30.99;60.91;101257.47;5075172;27;65822;-42
2023/04/09 01:32:57;;;;;;;;;;;;;;;31.02;63.45;101257.06;5075784;27;69560;-41
2023/04/09 01:35:27;;;;;;;;;;;;;;;31.02;61.77;101252.47;5075101;27;66124;-42
2023/04/09 01:37:59;;;;;;;;;;;;;;;31.04;62.14;101244.13;5074328;27;72941;-41
2023/04/09 01:40:29;;;;;;;;;;;;;;;31.07;62.04;101244.53;5064851;27;66411;-43
2023/04/09 01:43:01;;;;;;;;;;;;;;;31.08;63.46;101245.38;5077846;27;69572;-42
2023/04/09 01:45:33;;;;;;;;;;;;;;;31.10;62.47;101246.81;5064290;28;65167;-42
2023/04/09 01:48:04;;;;;;;;;;;;;;;31.11;62.69;101234.91;5077116;27;69807;-42
2023/04/09 01:50:34;;;;;;;;;;;;;;;31.14;64.01;101231.78;5077243;27;65899;-42
2023/04/09 01:53:05;;;;;;;;;;;;;;;31.15;62.52;101241.59;5077648;27;70779;-43
2023/04/09 01:55:35;;;;;;;;;;;;;;;31.17;65.09;101238.66;5063523;27;65481;-43
2023/04/09 01:58:05;;;;;;;;;;;;;;;31.22;62.43;101235.31;5076861;27;69644;-43
2023/04/09 02:00:38;;;;;;;;;;;;;;;31.24;62.38;101235.94;5059192;28;65753;-43
2023/04/09 02:03:22;;;;;;;;;;;;;;;31.27;62.15;101232.78;5092991;27;69033;-43
2023/04/09 02:06:03;;;;;;;;;;;;;;;31.29;62.34;101236.97;5053475;28;67746;-43
2023/04/09 02:08:34;;;;;;;;;;;;;;;31.32;62.23;101241.94;5060333;27;70672;-43
2023/04/09 02:11:09;;;;;;;;;;;;;;;31.35;62.10;101235.25;5075955;27;65717;-43
2023/04/09 02:13:40;;;;;;;;;;;;;;;31.38;61.67;101229.44;5075240;27;69967;-43
2023/04/09 02:16:12;;;;;;;;;;;;;;;31.40;62.13;101232.78;5076581;27;65194;-43
2023/04/09 02:18:43;;;;;;;;;;;;;;;31.42;61.88;101225.25;5076276;27;70966;-43
2023/04/09 02:21:13;;;;;;;;;;;;;;;31.44;64.21;101231.28;5074466;27;66716;-43
2023/04/09 02:23:44;;;;;;;;;;;;;;;31.46;64.33;101225.66;5051662;27;69776;-42
2023/04/09 02:26:14;;;;;;;;;;;;;;;31.42;64.49;101225.25;5078154;27;66706;-44
2023/04/09 02:28:45;;;;;;;;;;;;;;;31.42;64.87;101227.13;5078581;27;69748;-44
2023/04/09 02:31:16;;;;;;;;;;;;;;;30.95;64.70;101156.81;5038773;28;66309;-44
2023/04/09 02:33:46;;;;;;;;;;;;;;;31.43;65.19;101231.50;5076134;27;70423;-43
2023/04/09 02:36:16;;;;;;;;;;;;;;;31.47;64.21;101222.72;5073739;27;66429;-43
2023/04/09 02:38:46;;;;;;;;;;;;;;;31.25;64.36;101183.38;5075919;27;70197;-43
2023/04/09 02:41:17;;;;;;;;;;;;;;;31.48;64.17;101224.41;5090565;27;65903;-42
2023/04/09 02:43:47;;;;;;;;;;;;;;;31.49;63.86;101215.19;5057772;28;70498;-43
2023/04/09 02:46:17;;;;;;;;;;;;;;;31.49;63.84;101220.63;5074148;28;65556;-42
2023/04/09 02:48:49;;;;;;;;;;;;;;;31.51;64.28;101228.53;5076403;28;69590;-45
2023/04/09 02:51:20;;;;;;;;;;;;;;;31.49;63.44;101220.63;5058080;28;66310;-44
2023/04/09 02:53:51;;;;;;;;;;;;;;;31.54;63.26;101223.53;5072704;27;70108;-43
2023/04/09 02:56:21;;;;;;;;;;;;;;;31.60;62.63;101217.22;5074615;27;66467;-44
2023/04/09 02:58:52;;;;;;;;;;;;;;;31.67;62.17;101228.03;5089038;27;69952;-45
2023/04/09 03:01:23;;;;;;;;;;;;;;;31.73;61.95;101223.59;5058336;27;65707;-43
2023/04/09 03:03:53;;;;;;;;;;;;;;;31.78;61.74;101223.78;5057582;28;70319;-44
2023/04/09 03:06:25;;;;;;;;;;;;;;;31.83;61.72;101226.69;5052335;28;67510;-43
2023/04/09 03:08:55;;;;;;;;;;;;;;;31.88;61.53;101224.16;5052606;28;68874;-43
2023/04/09 03:11:25;;;;;;;;;;;;;;;31.91;61.14;101228.31;5074021;27;68125;-44
2023/04/09 03:13:55;;;;;;;;;;;;;;;31.94;60.90;101217.88;5056564;28;69116;-43
2023/04/09 03:16:25;;;;;;;;;;;;;;;32.00;60.56;101218.88;5050430;27;67337;-43
2023/04/09 03:18:56;;;;;;;;;;;;;;;32.03;60.59;101227.41;5074278;27;70239;-43
2023/04/09 03:21:26;;;;;;;;;;;;;;;32.07;60.23;101221.53;5089779;27;64693;-43
2023/04/09 03:23:56;;;;;;;;;;;;;;;32.10;60.02;101216.50;5074556;27;70988;-43
2023/04/09 03:26:26;;;;;;;;;;;;;;;32.13;59.85;101217.97;5076913;27;66441;-44
2023/04/09 03:28:57;;;;;;;;;;;;;;;32.15;59.49;101213.97;5057986;28;70564;-44
2023/04/09 03:31:27;;;;;;;;;;;;;;;32.19;59.50;101219.78;5094170;27;66908;-43
2023/04/09 03:33:58;;;;;;;;;;;;;;;32.22;59.64;101219.34;5077842;27;70421;-43
2023/04/09 03:36:31;;;;;;;;;;;;;;;32.26;59.18;101220.53;5088047;27;66541;-45
2023/04/09 03:39:10;;;;;;;;;;;;;;;32.27;59.25;101211.38;5057715;27;69397;-44
2023/04/09 03:41:44;;;;;;;;;;;;;;;32.30;58.89;101210.91;5060446;28;65215;-43
2023/04/09 03:44:16;;;;;;;;;;;;;;;32.33;58.61;101213.19;5078669;28;69911;-43
2023/04/09 03:46:58;;;;;;;;;;;;;;;32.34;58.53;101212.13;5077666;27;66108;-44
2023/04/09 03:49:29;;;;;;;;;;;;;;;32.35;58.52;101202.94;5070771;27;69858;-45
2023/04/09 03:52:08;;;;;;;;;;;;;;;32.38;58.52;101197.06;5085862;27;66121;-46
2023/04/09 03:54:42;;;;;;;;;;;;;;;32.39;58.42;101198.72;5060795;27;70058;-46
2023/04/09 03:57:17;;;;;;;;;;;;;;;32.41;58.42;101191.19;5063079;28;65805;-45
2023/04/09 03:59:50;;;;;;;;;;;;;;;32.43;58.27;101183.66;5070789;28;70390;-44
2023/04/09 04:02:25;;;;;;;;;;;;;;;32.45;57.90;101180.69;5063594;28;66993;-44
2023/04/09 04:05:00;;;;;;;;;;;;;;;32.48;57.96;101185.72;5095066;27;70023;-44
2023/04/09 04:07:36;;;;;;;;;;;;;;;32.50;57.86;101170.03;5057925;27;67433;-43
2023/04/09 04:10:12;;;;;;;;;;;;;;;32.53;57.91;101172.28;5090053;27;69963;-43
2023/04/09 04:12:45;;;;;;;;;;;;;;;32.56;57.97;101171.00;5063865;28;66221;-43
2023/04/09 04:15:44;;;;;;;;;;;;;;;32.48;58.82;101159.41;5077505;27;70339;-43
2023/04/09 04:18:16;;;;;;;;;;;;;;;32.40;59.30;101167.81;5063810;27;66644;-43
2023/04/09 04:20:50;;;;;;;;;;;;;;;32.36;59.62;101155.72;5062952;27;69924;-44
2023/04/09 04:23:20;;;;;;;;;;;;;;;32.32;59.82;101154.53;5077263;27;67082;-44
2023/04/09 04:26:13;;;;;;;;;;;;;;;32.30;59.93;101145.75;5076011;27;70315;-43
2023/04/09 04:28:43;;;;;;;;;;;;;;;32.32;59.61;101146.38;5065223;28;66894;-42
2023/04/09 04:31:25;;;;;;;;;;;;;;;32.40;59.42;101129.81;5061300;27;70556;-42
2023/04/09 04:33:58;;;;;;;;;;;;;;;32.48;59.21;101121.41;5095882;27;67330;-42
2023/04/09 04:36:29;;;;;;;;;;;;;;;32.55;59.06;101123.19;5080120;27;69494;-44
2023/04/09 04:38:59;;;;;;;;;;;;;;;32.59;58.81;101116.25;5064195;28;66526;-45
2023/04/09 04:41:49;;;;;;;;;;;;;;;32.64;58.57;101125.38;5071029;27;69620;-42
2023/04/09 04:44:23;;;;;;;;;;;;;;;32.69;58.57;101111.94;5063431;28;66194;-44
2023/04/09 04:47:03;;;;;;;;;;;;;;;32.74;58.30;101103.13;5077784;27;69976;-44
2023/04/09 04:49:33;;;;;;;;;;;;;;;32.77;58.24;101107.28;5077030;27;65794;-42
2023/04/09 04:52:06;;;;;;;;;;;;;;;32.83;57.76;101107.19;5063240;28;70347;-42
2023/04/09 04:54:40;;;;;;;;;;;;;;;32.87;57.48;101086.63;5062665;27;66846;-42
2023/04/09 04:57:15;;;;;;;;;;;;;;;32.91;57.64;101084.31;5078802;27;69833;-43
2023/04/09 04:59:46;;;;;;;;;;;;;;;32.91;57.29;101076.16;5081661;27;66519;-43
2023/04/09 05:02:18;;;;;;;;;;;;;;;32.92;57.17;101073.19;5074287;27;70767;-42
2023/04/09 05:05:06;;;;;;;;;;;;;;;32.95;57.34;101066.47;5078399;27;66855;-42
2023/04/09 05:07:43;;;;;;;;;;;;;;;32.98;57.13;101062.47;5061770;28;70530;-43
2023/04/09 05:10:15;;;;;;;;;;;;;;;33.01;56.87;101051.16;5093773;27;65977;-42
2023/04/09 05:12:46;;;;;;;;;;;;;;;33.03;56.82;101047.16;5062337;27;69082;-43
2023/04/09 05:15:27;;;;;;;;;;;;;;;33.06;56.80;101038.53;5063260;28;67056;-43
2023/04/09 05:17:58;;;;;;;;;;;;;;;33.08;56.52;101027.44;5092764;27;69687;-43
2023/04/09 05:20:28;;;;;;;;;;;;;;;33.11;56.43;101021.53;5059442;28;65831;-43
2023/04/09 05:23:11;;;;;;;;;;;;;;;33.13;56.52;101014.00;5058563;28;69751;-42
2023/04/09 05:25:47;;;;;;;;;;;;;;;33.17;56.42;101006.19;5059319;28;66361;-43
2023/04/09 05:28:33;;;;;;;;;;;;;;;33.20;56.25;100998.41;5092863;27;69836;-44
2023/04/09 05:31:14;;;;;;;;;;;;;;;33.21;56.10;100989.19;5058199;28;66892;-43
2023/04/09 05:33:52;;;;;;;;;;;;;;;33.17;56.20;100984.44;5059296;28;69908;-44
2023/04/09 05:36:32;;;;;;;;;;;;;;;33.04;58.08;100983.59;5056971;28;66992;-42
2023/04/09 05:39:03;;;;;;;;;;;;;;;32.83;56.00;100979.50;5078497;27;69581;-45
2023/04/09 05:41:36;;;;;;;;;;;;;;;32.60;54.40;100976.69;5071896;27;65069;-45
2023/04/09 05:44:28;;;;;;;;;;;;;;;32.35;52.92;100969.47;5052178;28;69358;-47
2023/04/09 05:47:20;;;;;;;;;;;;;;;32.08;51.42;100960.00;5054329;28;67510;-47
2023/04/09 05:50:20;;;;;;;;;;;;;;;31.91;50.05;100963.31;5065072;27;69533;-46
2023/04/09 05:52:53;;;;;;;;;;;;;;;31.77;49.22;100951.72;5090089;27;67781;-48
2023/04/09 05:55:31;;;;;;;;;;;;;;;31.66;48.39;100948.94;5072483;27;69880;-47
2023/04/09 05:58:02;;;;;;;;;;;;;;;31.52;47.41;100932.78;5071066;27;66088;-48
2023/04/09 06:00:34;;;;;;;;;;;;;;;31.44;47.03;100935.78;5079759;27;69974;-46
2023/04/09 06:03:04;;;;;;;;;;;;;;;31.38;46.48;100923.97;5080086;27;65304;-46
2023/04/09 06:05:38;;;;;;;;;;;;;;;31.30;45.63;100917.97;5078894;27;70405;-46
2023/04/09 06:08:08;;;;;;;;;;;;;;;31.28;45.40;100907.31;5090907;27;66630;-46
2023/04/09 06:10:38;;;;;;;;;;;;;;;31.22;44.73;100904.69;5061185;28;69847;-46
2023/04/09 06:13:09;;;;;;;;;;;;;;;31.20;44.47;100895.94;5080482;27;67051;-46
2023/04/09 06:15:39;;;;;;;;;;;;;;;31.14;43.88;100887.66;5058214;28;70331;-46
2023/04/09 06:18:09;;;;;;;;;;;;;;;31.13;43.61;100886.00;5075301;27;66239;-46
2023/04/09 06:20:40;;;;;;;;;;;;;;;31.09;43.41;100882.09;5073952;27;69759;-47
2023/04/09 06:23:10;;;;;;;;;;;;;;;31.07;42.86;100878.75;5075473;27;66768;-49
2023/04/09 06:25:40;;;;;;;;;;;;;;;31.02;42.74;100870.47;5072620;27;70237;-47
2023/04/09 06:28:11;;;;;;;;;;;;;;;30.97;42.57;100859.47;5093807;27;65155;-45
2023/04/09 06:30:41;;;;;;;;;;;;;;;30.94;42.10;100854.50;5061749;27;70354;-47
2023/04/09 06:33:11;;;;;;;;;;;;;;;30.95;42.20;100856.13;5077060;27;66268;-46
2023/04/09 06:35:41;;;;;;;;;;;;;;;30.97;41.75;100853.22;5075299;27;70137;-48
2023/04/09 06:38:11;;;;;;;;;;;;;;;30.95;42.04;100845.31;5079453;27;65593;-46
2023/04/09 06:40:41;;;;;;;;;;;;;;;30.92;41.78;100837.63;5079147;27;70037;-50
2023/04/09 06:43:12;;;;;;;;;;;;;;;30.89;41.74;100829.94;5079383;27;65809;-49
2023/04/09 06:45:48;;;;;;;;;;;;;;;30.90;41.26;100834.34;5064219;27;70095;-45
2023/04/09 06:48:18;;;;;;;;;;;;;;;30.90;41.40;100824.31;5078921;27;67250;-48
2023/04/09 06:50:48;;;;;;;;;;;;;;;30.85;40.84;100823.31;5079505;27;70372;-45
2023/04/09 06:53:19;;;;;;;;;;;;;;;30.88;40.90;100817.47;5083437;27;66995;-47
2023/04/09 06:55:50;;;;;;;;;;;;;;;30.86;40.33;100808.72;5076501;27;70814;-46
2023/04/09 06:58:21;;;;;;;;;;;;;;;30.87;40.53;100810.38;5078908;27;66286;-46
2023/04/09 07:00:51;;;;;;;;;;;;;;;30.87;40.64;100804.94;5081508;27;70462;-47
2023/04/09 07:03:22;;;;;;;;;;;;;;;30.87;40.65;100799.53;5046674;28;66005;-46
2023/04/09 07:05:54;;;;;;;;;;;;;;;30.82;39.96;100802.09;5083512;27;70355;-47
2023/04/09 07:08:24;;;;;;;;;;;;;;;30.82;40.20;100791.28;5077502;27;66410;-47
2023/04/09 07:10:54;;;;;;;;;;;;;;;30.82;39.90;100791.28;5084245;27;70662;-46
2023/04/09 07:13:24;;;;;;;;;;;;;;;30.82;40.16;100791.28;5080489;27;67071;-47
2023/04/09 07:15:56;;;;;;;;;;;;;;;30.82;40.19;100788.56;5072003;27;70188;-46
2023/04/09 07:18:26;;;;;;;;;;;;;;;30.83;40.03;100771.25;5075762;27;66195;-48
2023/04/09 07:20:56;;;;;;;;;;;;;;;30.85;40.00;100771.88;5078985;27;69666;-47
2023/04/09 07:23:27;;;;;;;;;;;;;;;30.86;39.66;100770.81;5073916;27;67113;-48
2023/04/09 07:26:05;;;;;;;;;;;;;;;30.86;39.60;100754.56;5079649;27;69855;-48
2023/04/09 07:28:35;;;;;;;;;;;;;;;30.84;39.72;100751.25;5075004;27;66357;-48
2023/04/09 07:31:06;;;;;;;;;;;;;;;30.86;39.90;100749.13;5074860;27;70425;-47
2023/04/09 07:33:36;;;;;;;;;;;;;;;30.86;39.63;100754.56;5063763;28;66261;-46
2023/04/09 07:36:07;;;;;;;;;;;;;;;30.84;39.93;100756.66;5081348;27;70556;-46
2023/04/09 07:38:38;;;;;;;;;;;;;;;30.85;39.51;100747.50;5089872;27;66480;-49
2023/04/09 07:41:10;;;;;;;;;;;;;;;30.85;39.65;100742.91;5081412;27;70296;-44
2023/04/09 07:43:40;;;;;;;;;;;;;;;30.94;43.65;100740.72;5080737;27;66609;-47
2023/04/09 07:46:11;;;;;;;;;;;;;;;31.05;47.92;100736.44;5082672;27;70417;-46
2023/04/09 07:48:41;;;;;;;;;;;;;;;31.19;48.96;100737.13;5081825;27;66111;-48
2023/04/09 07:51:11;;;;;;;;;;;;;;;31.24;49.21;100740.00;5083109;27;69765;-46
2023/04/09 07:53:42;;;;;;;;;;;;;;;31.22;48.46;100736.69;5079495;27;66093;-45
2023/04/09 07:56:12;;;;;;;;;;;;;;;31.51;51.21;100730.53;5082787;27;70359;-45
2023/04/09 07:58:43;;;;;;;;;;;;;;;31.74;52.66;100728.97;5080288;27;66744;-47
2023/04/09 08:01:13;;;;;;;;;;;;;;;31.93;53.09;100722.47;5061728;28;70205;-45
2023/04/09 08:03:44;;;;;;;;;;;;;;;32.12;53.15;100727.81;5079538;27;66256;-44
2023/04/09 08:06:14;;;;;;;;;;;;;;;32.30;54.38;100727.72;5082852;28;68574;-46
2023/04/09 08:08:45;;;;;;;;;;;;;;;32.41;53.64;100712.53;5081720;27;66853;-45
2023/04/09 08:11:16;;;;;;;;;;;;;;;32.48;53.88;100713.25;5082784;27;69043;-47
2023/04/09 08:13:46;;;;;;;;;;;;;;;32.59;53.71;100709.72;5083492;27;65945;-46
2023/04/09 08:16:17;;;;;;;;;;;;;;;32.63;54.05;100702.75;5081559;27;70391;-49
2023/04/09 08:18:48;;;;;;;;;;;;;;;32.70;54.24;100699.91;5084037;27;66322;-45
2023/04/09 08:21:37;;;;;;;;;;;;;;;32.75;53.36;100702.75;5061909;28;70351;-46
2023/04/09 08:24:10;;;;;;;;;;;;;;;32.80;52.68;100705.59;5081515;27;66333;-46
2023/04/09 08:26:41;;;;;;;;;;;;;;;32.82;51.92;100699.91;5081236;27;70645;-47
2023/04/09 08:29:12;;;;;;;;;;;;;;;32.83;51.72;100694.25;5083572;27;66477;-46
2023/04/09 08:31:42;;;;;;;;;;;;;;;32.87;51.85;100702.72;5080870;27;70156;-47
2023/04/09 08:34:14;;;;;;;;;;;;;;;32.90;52.17;100705.81;5080674;27;67160;-46
2023/04/09 08:36:46;;;;;;;;;;;;;;;32.97;53.40;100705.69;5078367;27;70301;-48
2023/04/09 08:39:19;;;;;;;;;;;;;;;32.97;53.89;100707.56;5078268;27;66399;-45
2023/04/09 08:41:50;;;;;;;;;;;;;;;33.01;54.20;100712.31;5082040;27;70707;-46
2023/04/09 08:44:20;;;;;;;;;;;;;;;33.04;54.63;100716.44;5074229;27;67078;-47
2023/04/09 08:46:51;;;;;;;;;;;;;;;33.10;56.64;100712.78;5074571;27;70361;-46
2023/04/09 08:49:21;;;;;;;;;;;;;;;33.18;57.88;100712.38;5080993;27;66995;-47
2023/04/09 08:51:52;;;;;;;;;;;;;;;33.20;59.01;100710.25;5079475;27;69813;-50
2023/04/09 08:54:25;;;;;;;;;;;;;;;33.22;58.87;100710.84;5078943;27;66605;-48
2023/04/09 08:56:56;;;;;;;;;;;;;;;33.20;59.05;100704.81;5074228;27;69872;-49
2023/04/09 08:59:26;;;;;;;;;;;;;;;33.20;58.93;100712.97;5062028;28;66511;-48
2023/04/09 09:02:11;;;;;;;;;;;;;;;33.18;59.63;100706.94;5076549;27;70411;-49
2023/04/09 09:04:48;;;;;;;;;;;;;;;33.20;59.49;100718.41;5076732;27;65998;-47
2023/04/09 09:07:18;;;;;;;;;;;;;;;33.23;59.70;100714.41;5077457;28;69725;-48
2023/04/09 09:09:52;;;;;;;;;;;;;;;33.35;58.75;100707.88;5077689;27;66471;-47
2023/04/09 09:12:32;;;;;;;;;;;;;;;33.50;57.86;100709.22;5077472;27;70960;-48
2023/04/09 09:15:02;;;;;;;;;;;;;;;33.59;57.25;100711.34;5078141;27;66366;-47
2023/04/09 09:17:33;;;;;;;;;;;;;;;33.68;57.09;100724.56;5078344;27;70397;-47
2023/04/09 09:20:32;;;;;;;;;;;;;;;33.73;56.84;100713.78;5073522;27;65173;-46
2023/04/09 09:23:05;;;;;;;;;;;;;;;33.79;56.49;100723.66;5066539;27;69637;-48
2023/04/09 09:25:40;;;;;;;;;;;;;;;33.85;55.86;100738.19;5079535;27;65066;-47
2023/04/09 09:28:11;;;;;;;;;;;;;;;33.88;55.84;100738.56;5079861;27;69983;-47
2023/04/09 09:30:41;;;;;;;;;;;;;;;33.87;56.18;100742.31;5076889;27;67970;-48
2023/04/09 09:33:12;;;;;;;;;;;;;;;33.91;55.96;100746.22;5076780;27;70019;-47
2023/04/09 09:35:49;;;;;;;;;;;;;;;33.96;55.85;100745.47;5076841;27;66785;-48
2023/04/09 09:38:20;;;;;;;;;;;;;;;33.97;55.59;100747.97;5071474;27;70713;-48
2023/04/09 09:40:51;;;;;;;;;;;;;;;33.99;55.78;100750.41;5075382;27;67072;-47
2023/04/09 09:43:21;;;;;;;;;;;;;;;34.00;55.69;100760.25;5078999;27;69702;-47
2023/04/09 09:45:52;;;;;;;;;;;;;;;34.00;55.28;100761.06;5078142;27;66998;-46
2023/04/09 09:48:22;;;;;;;;;;;;;;;34.01;55.40;100765.44;5076746;27;69796;-47
2023/04/09 09:50:56;;;;;;;;;;;;;;;34.02;55.36;100755.41;5078983;27;67010;-47
2023/04/09 09:53:27;;;;;;;;;;;;;;;34.01;55.54;100759.19;5078014;27;69193;-47
2023/04/09 09:55:59;;;;;;;;;;;;;;;34.02;55.59;100749.97;5079675;27;66399;-47
2023/04/09 09:58:37;;;;;;;;;;;;;;;34.03;55.73;100763.31;5076282;27;70771;-47
2023/04/09 10:01:09;;;;;;;;;;;;;;;34.04;55.55;100758.69;5073405;27;65954;-48
2023/04/09 10:03:41;;;;;;;;;;;;;;;34.02;55.74;100766.28;5079276;27;70304;-47
2023/04/09 10:06:12;;;;;;;;;;;;;;;34.02;55.55;100763.56;5073648;27;66016;-46
2023/04/09 10:08:43;;;;;;;;;;;;;;;34.02;55.68;100771.72;5078049;28;70692;-47
2023/04/09 10:11:13;;;;;;;;;;;;;;;34.00;55.61;100757.53;5056755;27;65344;-47
2023/04/09 10:13:49;;;;;;;;;;;;;;;33.99;55.29;100755.88;5078471;27;70365;-47
2023/04/09 10:16:22;;;;;;;;;;;;;;;34.00;55.60;100762.97;5072833;27;66538;-47
2023/04/09 10:18:56;;;;;;;;;;;;;;;33.98;55.67;100765.09;5074515;27;70298;-47
2023/04/09 10:21:44;;;;;;;;;;;;;;;33.97;55.53;100766.19;5073705;27;66597;-47
2023/04/09 10:24:15;;;;;;;;;;;;;;;33.97;55.48;100772.44;5076706;27;69923;-48
2023/04/09 10:26:45;;;;;;;;;;;;;;;33.97;55.61;100764.28;5078952;27;66004;-48
2023/04/09 10:29:16;;;;;;;;;;;;;;;33.95;55.68;100773.75;5079121;27;69827;-47
2023/04/09 10:31:48;;;;;;;;;;;;;;;33.94;55.79;100777.56;5072652;27;67999;-47
2023/04/09 10:34:23;;;;;;;;;;;;;;;33.93;55.91;100773.19;5079612;27;69710;-49
2023/04/09 10:36:56;;;;;;;;;;;;;;;33.93;56.02;100784.06;5072857;27;66633;-47
2023/04/09 10:39:30;;;;;;;;;;;;;;;33.92;55.98;100782.41;5069162;27;70836;-47
2023/04/09 10:42:04;;;;;;;;;;;;;;;33.90;56.12;100784.56;5072926;27;65626;-47
2023/04/09 10:44:40;;;;;;;;;;;;;;;33.90;56.35;100790.00;5078227;27;70429;-45
2023/04/09 10:47:11;;;;;;;;;;;;;;;33.90;56.05;100795.44;5069446;27;66835;-47
2023/04/09 10:52:39;;;;;;;;;;;;;;;33.87;56.15;100785.03;5070481;27;66364;-47
2023/04/09 10:55:29;;;;;;;;;;;;;;;33.86;56.26;100788.84;5052749;28;70515;-46
2023/04/09 10:58:00;;;;;;;;;;;;;;;33.84;56.66;100794.50;5074854;27;65896;-48
2023/04/09 11:00:30;;;;;;;;;;;;;;;33.84;56.52;100790.97;5075600;27;70209;-45
2023/04/09 11:03:04;;;;;;;;;;;;;;;33.83;56.86;100789.34;5066468;27;66430;-47
2023/04/09 11:05:39;;;;;;;;;;;;;;;33.70;58.21;100793.16;5079645;27;70281;-47
2023/04/09 11:08:10;;;;;;;;;;;;;;;33.53;60.33;100798.53;5061019;28;66078;-46
2023/04/09 11:10:42;;;;;;;;;;;;;;;33.33;61.85;100805.16;5080970;27;71678;-48
2023/04/09 11:13:18;;;;;;;;;;;;;;;33.21;62.76;100815.22;5084774;27;65224;-47
2023/04/09 11:15:49;;;;;;;;;;;;;;;33.10;63.02;100813.34;5082645;27;70315;-46
2023/04/09 11:18:19;;;;;;;;;;;;;;;32.96;62.48;100817.31;5056892;27;67053;-49
2023/04/09 11:20:53;;;;;;;;;;;;;;;32.71;60.53;100823.81;5085867;27;70863;-47
2023/04/09 11:23:24;;;;;;;;;;;;;;;32.39;58.54;100818.63;5083426;27;65266;-47
2023/04/09 11:25:55;;;;;;;;;;;;;;;32.14;57.11;100836.97;5082275;27;70142;-48
2023/04/09 11:28:26;;;;;;;;;;;;;;;31.98;55.55;100833.84;5083914;27;64981;-50
2023/04/09 11:30:56;;;;;;;;;;;;;;;31.81;54.31;100844.44;5082195;27;70413;-45
2023/04/09 11:33:35;;;;;;;;;;;;;;;31.70;52.95;100849.78;5082997;27;66490;-48
2023/04/09 11:36:05;;;;;;;;;;;;;;;31.58;51.71;100850.56;5082361;27;70614;-46
2023/04/09 11:38:37;;;;;;;;;;;;;;;31.47;50.39;100854.00;5085767;27;66375;-49
2023/04/09 11:41:11;;;;;;;;;;;;;;;31.34;50.05;100860.38;5083359;27;69892;-48
2023/04/09 11:43:41;;;;;;;;;;;;;;;31.30;49.33;100869.19;5080834;27;65657;-51
2023/04/09 11:46:12;;;;;;;;;;;;;;;31.27;48.23;100877.75;5082716;27;70385;-46
2023/04/09 11:48:42;;;;;;;;;;;;;;;31.24;47.57;100875.50;5075994;28;66345;-46
2023/04/09 11:51:13;;;;;;;;;;;;;;;31.21;46.79;100887.59;5083858;27;70411;-46
2023/04/09 11:53:43;;;;;;;;;;;;;;;31.16;46.59;100890.16;5083646;27;66474;-49
2023/04/09 11:56:13;;;;;;;;;;;;;;;31.09;46.33;100895.63;5082919;27;69796;-49
2023/04/09 11:58:46;;;;;;;;;;;;;;;31.07;45.73;100891.50;5083382;27;65475;-50
2023/04/09 12:01:16;;;;;;;;;;;;;;;31.07;45.32;100895.03;5078066;28;70473;-48
2023/04/09 12:03:54;;;;;;;;;;;;;;;31.06;44.81;100901.47;5074625;27;65930;-48
2023/04/09 12:06:24;;;;;;;;;;;;;;;30.95;44.34;100894.06;5075502;27;70531;-47
2023/04/09 12:08:58;;;;;;;;;;;;;;;30.96;44.07;100901.16;5082869;27;66509;-48
2023/04/09 12:11:30;;;;;;;;;;;;;;;30.99;44.46;100906.13;5083050;28;69665;-49
2023/04/09 12:14:01;;;;;;;;;;;;;;;30.93;44.01;100907.03;5083278;27;65296;-47
2023/04/09 12:16:33;;;;;;;;;;;;;;;30.90;43.56;100908.28;5083743;27;70090;-48
2023/04/09 12:19:05;;;;;;;;;;;;;;;30.85;43.01;100905.41;5080768;27;65308;-47
2023/04/09 12:22:05;;;;;;;;;;;;;;;30.88;43.69;100914.97;5095436;27;70157;-48
2023/04/09 12:24:35;;;;;;;;;;;;;;;30.78;43.36;100911.88;5071749;27;67137;-48
2023/04/09 12:27:05;;;;;;;;;;;;;;;30.81;42.91;100919.59;5077503;27;69529;-49
2023/04/09 12:29:36;;;;;;;;;;;;;;;30.75;42.94;100928.56;5080429;27;66661;-48
2023/04/09 12:32:06;;;;;;;;;;;;;;;30.71;42.41;100929.00;5079913;27;69285;-48
2023/04/09 12:34:36;;;;;;;;;;;;;;;30.65;42.77;100927.16;5080989;27;66644;-45
2023/04/09 12:37:07;;;;;;;;;;;;;;;30.62;42.49;100924.03;5078544;27;70799;-47
2023/04/09 12:39:37;;;;;;;;;;;;;;;30.55;42.43;100932.22;5077489;27;66440;-47
2023/04/09 12:42:08;;;;;;;;;;;;;;;30.55;42.64;100937.63;5080355;27;69852;-49
2023/04/09 12:44:38;;;;;;;;;;;;;;;30.57;42.86;100934.72;5074576;27;66586;-48
2023/04/09 12:47:08;;;;;;;;;;;;;;;30.54;42.61;100937.88;5080838;27;70590;-48
2023/04/09 12:49:39;;;;;;;;;;;;;;;30.50;42.50;100934.75;5079719;27;66565;-47
2023/04/09 12:52:10;;;;;;;;;;;;;;;30.45;42.79;100934.56;5079236;27;69798;-47
2023/04/09 12:54:40;;;;;;;;;;;;;;;30.47;42.50;100946.84;5078972;27;65962;-48
2023/04/09 12:57:10;;;;;;;;;;;;;;;30.44;42.93;100935.63;5080706;27;70370;-47
2023/04/09 12:59:41;;;;;;;;;;;;;;;30.41;42.07;100941.47;5077847;27;66300;-49
2023/04/09 13:02:11;;;;;;;;;;;;;;;30.37;42.77;100943.78;5077685;27;69747;-47
2023/04/09 13:04:42;;;;;;;;;;;;;;;30.37;43.81;100951.03;5076531;27;66962;-47
2023/04/09 13:07:14;;;;;;;;;;;;;;;30.39;43.45;100962.50;5078718;27;69408;-47